Peter Schäfer

Chefscout - Hamburger SV
10 Apr 2029
Dienstag
Verarbeitung

Persönlichkeit

Anpassungsfähigkeit (7) Ehrgeiz (1) Kontroverse (5) Loyalität (19) Druck (19) Professionalität (3) Fairness (9) Temperament (15)

Profil

Trainerstil Demokratisch
Lizenz Nationale A
Entschlossenheit 11
Menschenführung 9
Motivation 9
Disziplin 12
Arbeitszufriedenheit
100%
Ermüdung
0%
Rolle Chefscout
Gehalt 83.3K p/W
Vertrag 14.03.2030

Leistung

Verhalten Gut
Trainingseffektivität
61%
Spielerentwicklung
35%
Verletzungsprävention
50%
Taktische Umsetzung
60%

Letzte Ereignisse

Geburtstag 49T her

Aktuell beobachtet

149
Spieler Verein Status Fähigkeit Vertrauen Beobachtet Zuletzt beobachtet Letzte Stimme
Honest Ahanor Udinese Aktiv 141 / 145 40% 4 29.01.2029 -
Buba Sangaré Elche Aktiv 135 / 142 40% 2 29.01.2029 -
Eliesse Ben Seghir Bayer Leverkusen Aktiv 141 / 151 76% 1 29.01.2029 Befürworten
Martín Jiménez Universidad de Concepcion Aktiv 109 / 114 40% 1 29.01.2029 -
Mario Vušković Union Berlin Verloren 131 / 138 76% 1 22.01.2029 Befürworten
Jussef Nasrawe SV Ried Aktiv 109 / 114 40% 2 15.01.2029 -
Jorge Salinas Racing Santander Aktiv 134 / 140 40% 1 15.01.2029 -
Mousa Mignolet Vitesse Aktiv 107 / 118 40% 1 15.01.2029 -
Aaron Zehnter VfL Wolfsburg Aktiv 139 / 143 76% 1 08.01.2029 Befürworten
Jannik Huth VfL Wolfsburg Verloren 124 / 124 76% 1 07.01.2029 Befürworten
Shane Nti Chesterfield Aktiv 112 / 122 40% 1 06.01.2029 -
Lisandro Piñero Banfield Aktiv 125 / 127 40% 1 06.01.2029 -
Lewi Richards Walsall Aktiv 103 / 109 40% 1 02.01.2029 -
Tobiáš Pališčák AS Trencin Aktiv 105 / 114 40% 1 02.01.2029 -
Andrej Bačanin Vaduz Aktiv 122 / 123 40% 1 02.01.2029 -
Franculino Ajax Aktiv 151 / 151 40% 1 01.01.2029 -
Kauã Elias Shakhtar Aktiv 138 / 146 40% 1 01.01.2029 -
Vivaldo Semedo Watford Aktiv 126 / 129 40% 1 01.01.2029 -
Joris Boguo SV Ried Aktiv 103 / 109 40% 1 01.01.2029 -
Aarón Ochoa Málaga Verloren 124 / 129 40% 1 01.01.2029 -
Andrej Bačanin Vaduz Verloren 116 / 126 40% 1 01.01.2029 -
Oliver Sorg SV Ried Aktiv 112 / 116 40% 2 28.08.2028 -
Giovanni Cantizano Rosario Central Aktiv 114 / 130 40% 1 28.08.2028 -
Yago Noal Santa Cruz Aktiv 112 / 114 40% 1 28.08.2028 -
Gabriel Mec Ceará Aktiv 116 / 123 40% 1 23.08.2028 -
Sebastian Rodriguez Minnesota United FC Aktiv 112 / 128 40% 1 23.08.2028 -
Alessio Cacciamani Torino Aktiv 123 / 131 40% 1 14.08.2028 -
Rodrigo Mora AS Roma Aktiv 151 / 155 40% 1 14.08.2028 -
Alexander Røssing-Lelesiit St. Pauli Aktiv 123 / 129 40% 1 07.08.2028 -
Babis Kostoulas Manchester City Aktiv 153 / 151 40% 2 31.07.2028 -
Love Arrhov St. Pauli Aktiv 122 / 135 40% 1 31.07.2028 -
Victor Aznar Cádiz Aktiv 138 / 140 40% 1 24.07.2028 -
Jorthy Mokio Ajax Aktiv 139 / 137 40% 1 17.07.2028 -
Leo Pecover Rotherham United Aktiv 101 / 114 40% 1 17.07.2028 -
André Miranda Porto Aktiv 118 / 123 40% 1 10.07.2028 -
Sebastian Lodberg Pergolettese Aktiv 102 / 117 40% 1 10.07.2028 -
Noah Tamsamani Vitesse Aktiv 100 / 110 40% 1 10.07.2028 -
Illaijh de Ruijter ADO Den Haag Aktiv 124 / 129 40% 2 26.06.2028 -
Harry Amass Manchester United Aktiv 147 / 146 40% 1 20.06.2028 -
Gerardo Del Vecchio Rah Ahan Aktiv 114 / 110 40% 1 20.06.2028 -
Daniel Banjaqui Benfica Aktiv 123 / 133 40% 1 20.06.2028 -
Neil Volken Zurich Aktiv 103 / 113 40% 2 12.06.2028 -
Josh King Fulham Aktiv 140 / 155 40% 1 12.06.2028 -
Moussa Yeo Swansea City Aktiv 133 / 134 40% 2 03.06.2028 -
Emersonn Ipswich Town Aktiv 132 / 138 40% 1 03.06.2028 -
Filipe Sousa Porto Aktiv 105 / 106 40% 1 03.06.2028 -
Pau Cubarsí Barcelona Aktiv 162 / 160 40% 1 03.06.2028 -
Martim Cunha Porto Aktiv 109 / 110 40% 3 01.06.2028 -
Alejandro Iturbe Elche Aktiv 145 / 142 40% 1 01.06.2028 -
Deniz Ertaş Heidenheim Aktiv 125 / 131 40% 1 01.06.2028 -
Christos Mandas Lazio Aktiv 144 / 148 40% 1 31.01.2028 -
James Trafford Leeds United Aktiv 153 / 155 40% 1 24.01.2028 -
Jonmi Magunagoitia Eibar Aktiv 141 / 139 40% 1 10.01.2028 -
Assane Diao Como Aktiv 156 / 149 40% 1 01.01.2028 -
Luca Bombino San Diego Football Club Aktiv 99 / 114 40% 1 30.08.2027 -
Raphael Posch Mattersburg Aktiv 115 / 117 40% 1 30.08.2027 -
Frederik Ihler IF Elfsborg Aktiv 106 / 111 40% 1 30.08.2027 -
Felipe Faúndez O'Higgins Aktiv 100 / 101 40% 1 28.08.2027 -
Mohamed Moussa Koïta Persijap Aktiv 100 / 107 40% 3 27.08.2027 -
Jorrel Hato Chelsea Aktiv 151 / 156 40% 1 26.08.2027 -
Luis Otávio Sporting Kansas City Aktiv 120 / 115 40% 1 26.08.2027 -
Facundo Balatti Fenix Aktiv 100 / 113 40% 1 22.08.2027 -
Abdoul Djire Ararat Aktiv 94 / 106 40% 1 21.08.2027 -
Harbor Miller LA Galaxy Aktiv 95 / 94 40% 1 21.08.2027 -
Alexis Fretes Libertad Aktiv 110 / 111 40% 2 20.08.2027 -
Florent Hajdini Wolfsberger AC Aktiv 96 / 102 40% 1 18.08.2027 -
Azizbek To'lqinbekov Sogdiana Aktiv 86 / 111 40% 3 15.08.2027 -
Abdoulie Tamba GIF Sundsvall Aktiv 103 / 100 40% 2 15.08.2027 -
Mio Zimmermann Luzern Aktiv 98 / 110 40% 1 14.08.2027 -
Marwin Schmitz St. Pauli Aktiv 96 / 105 40% 1 13.08.2027 -
Petik Manukyan Urartu Aktiv 96 / 102 40% 1 11.08.2027 -
Bahia Santos Aktiv 111 / 123 40% 1 10.08.2027 -
Kevin Kelsy Portland Timbers Aktiv 121 / 123 40% 2 09.08.2027 -
Luis Palacios Tigres Aktiv 105 / 109 40% 2 01.08.2027 -
Will Lankshear Middlesbrough Aktiv 130 / 124 40% 5 30.07.2027 -
Archie Goodwin Charlotte Football Club Aktiv 99 / 101 40% 1 29.07.2027 -
Alexandre Duville-Parsemain Moreirense Aktiv 118 / 114 40% 2 28.07.2027 -
Abdoulie Ceesay St. Pauli Aktiv 114 / 118 40% 6 26.07.2027 -
Denys Smetana Metalurh Zaporizhzhia Aktiv 102 / 111 40% 3 26.07.2027 -
Juan Manuel Villalba Estudiantes Aktiv 110 / 124 40% 1 26.07.2027 -
Vasyl Bundash Metalurh Zaporizhzhia Aktiv 105 / 115 40% 4 23.07.2027 -
Gadiel Paoli General Caballero Aktiv 92 / 97 40% 1 23.07.2027 -
Dženan Pejčinović VfB Stuttgart Aktiv 122 / 126 40% 5 20.07.2027 -
Filipe Gabriel Depor Aktiv 92 / 94 40% 2 19.07.2027 -
Jacob Peter Hödl Sturm Graz Verloren 119 / 126 40% 1 19.07.2027 -
Arkaitz Mariezkurrena Real Sociedad Aktiv 114 / 128 40% 2 14.07.2027 -
Lars Villiger Luzern Aktiv 114 / 118 40% 3 12.07.2027 -
Moctar Diop KAA Gent Aktiv 118 / 124 40% 5 11.07.2027 -
Peter Itodo Metalist Aktiv 119 / 109 40% 2 11.07.2027 -
Thomas Kastanaras FC Augsburg Aktiv 114 / 114 40% 3 10.07.2027 -
García Pascual Cádiz Aktiv 129 / 121 40% 4 07.07.2027 -
Rafiu Durosinmi Racing Genk Aktiv 128 / 136 40% 3 07.07.2027 -
Maurits Kjærgaard Red Bull Salzburg Aktiv 136 / 134 40% 5 05.07.2027 -
Tyreece Campbell Charlton Athletic Aktiv 119 / 119 40% 3 05.07.2027 -
Youssuf Sylla Jagiellonia Aktiv 107 / 119 40% 1 26.06.2027 -
Daniel Vernattus Metalist Aktiv 99 / 107 40% 1 24.06.2027 -
Mohamadou Kanté West Ham United Aktiv 122 / 125 40% 1 24.06.2027 -
Sanel Šaljić Austria Wien Aktiv 110 / 129 40% 1 23.06.2027 -
Paulo Cardoso Sporting CP Aktiv 95 / 98 40% 2 22.06.2027 -
Joel Medina Osasuna Aktiv 108 / 126 40% 2 20.06.2027 -
Matheus Gonçalves Al-Ahli Aktiv 125 / 126 40% 1 18.06.2027 -
Patrick Mainka Heidenheim Aktiv 139 / 140 69% 1 14.06.2027 Befürworten
Giorgi Kvernadze Frosinone Aktiv 119 / 119 40% 1 06.06.2027 -
Olívio Tomé Benfica Aktiv 103 / 117 40% 2 05.06.2027 -
Juan-José Perea Zurich Aktiv 115 / 125 40% 3 28.01.2027 -
Richard Koné Queens Park Rangers Aktiv 129 / 121 40% 2 28.01.2027 -
Ousmane Camara Castellón Aktiv 123 / 119 40% 1 28.01.2027 -
Álex Forés Burgos Aktiv 129 / 131 40% 2 27.01.2027 -
Meschack Elia Alanyaspor Aktiv 129 / 111 40% 2 27.01.2027 -
Keita Kosugi Eintracht Frankfurt Aktiv 117 / 135 40% 1 26.01.2027 -
Davis Keillor-Dunn Wrexham Aktiv 122 / 121 40% 1 23.01.2027 -
Hugo Cuypers Monterrey Aktiv 137 / 125 40% 1 23.01.2027 -
Santiago Sosa Yung Valencia Aktiv 114 / 131 40% 1 23.01.2027 -
Arthur Cabral Botafogo Aktiv 138 / 128 40% 1 21.01.2027 -
Egas Cacintura Akhmat Grozny Aktiv 129 / 131 40% 1 20.01.2027 -
Claudio Spinelli Vasco da Gama Aktiv 128 / 122 40% 1 18.01.2027 -
Donis Avdijaj Wolfsberger AC Aktiv 114 / 115 40% 1 16.01.2027 -
Hwang Hee-Chan Wolverhampton Aktiv 142 / 136 40% 1 16.01.2027 -
Yorbe Vertessen Red Bull Salzburg Aktiv 122 / 127 40% 3 13.01.2027 -
Samuel Essende Young Boys Aktiv 130 / 131 40% 2 09.01.2027 -
Joaquin Seys Club Brugge Aktiv 120 / 133 40% 1 07.01.2027 -
Oscar Kabwit Luzern Aktiv 109 / 118 40% 1 06.01.2027 -
Diego Rossi Monterrey Aktiv 131 / 127 40% 1 31.08.2026 Mehr Infos nötig
João Klauss LA Galaxy Aktiv 138 / 125 40% 1 30.08.2026 -
Timo Werner San Jose Earthquakes Aktiv 136 / 118 40% 2 29.08.2026 -
Dani Raba Valencia Aktiv 137 / 134 40% 1 29.08.2026 -
Miguel Merentiel Boca Juniors Aktiv 139 / 126 40% 2 28.08.2026 -
Indiana Vassilev Philadelphia Union Aktiv 106 / 117 40% 1 26.08.2026 -
Leonardo Campana New England Revolution Aktiv 133 / 126 40% 1 25.08.2026 -
Matteo di Giusto Luzern Aktiv 120 / 129 40% 2 23.08.2026 -
Oli McBurnie Hull City Aktiv 126 / 137 40% 1 23.08.2026 -
Rilind Nivokazi Sion Aktiv 115 / 115 40% 3 21.08.2026 -
Philippe Keny Zurich Aktiv 126 / 118 40% 3 18.08.2026 -
Ilyas Chouaref Sion Aktiv 127 / 121 40% 1 18.08.2026 -
Morgan Guilavogui Real Salt Lake Aktiv 131 / 119 40% 1 16.08.2026 -
Josias Lukembila Sion Aktiv 117 / 122 40% 1 15.08.2026 -
Ibrahim Salah Basel Aktiv 118 / 119 40% 1 15.08.2026 -
Caleb Yirenkyi Coventry City Aktiv 135 / 133 40% 1 15.08.2026 -
Samuel Marques Grasshopper Aktiv 108 / 117 40% 1 14.08.2026 -
Alexey Miranchuk Atlanta United FC Aktiv 153 / 135 40% 2 12.08.2026 -
Fodé Sylla Sion Aktiv 115 / 123 40% 1 12.08.2026 -
Luca Orellano Monterrey Aktiv 124 / 136 40% 1 10.08.2026 -
Pep Biel Charlotte Football Club Aktiv 140 / 125 40% 1 09.08.2026 -
Mohamed Bangoura Zurich Aktiv 95 / 100 40% 1 07.08.2026 -
Edmund Baidoo Red Bull Salzburg Aktiv 113 / 123 40% 1 07.08.2026 -
Jesus Ferreira Seattle Sounders Aktiv 131 / 133 40% 1 05.08.2026 -
Tim Lemperle TSG Hoffenheim Aktiv 139 / 134 40% 1 05.08.2026 -
Arjan Malić Sturm Graz Aktiv 113 / 122 40% 1 04.08.2026 -
Julian von Moos Grasshopper Aktiv 106 / 120 40% 1 01.08.2026 -